Time;durP1;ratioP1;P1;durP2;ratioP2;P2;SDS_P1;SDS_P2;PMS_P1;PMS_P2;Temp;Humidity;BMP_temperature;BMP_pressure;BME280_temperature;BME280_humidity;BME280_pressure;Samples;Min_cycle;Max_cycle;Signal;HPM_P1;HPM_P2
2023/03/20 00:01:54;;;;;;;12.30;9.18;;;;;;;;;;6309031;22;20023;-81
2023/03/20 00:04:20;;;;;;;17.33;12.32;;;;;;;;;;6308215;22;20111;-80
2023/03/20 00:06:46;;;;;;;24.67;14.65;;;;;;;;;;6305463;22;20014;-80
2023/03/20 00:09:12;;;;;;;13.90;11.43;;;;;;;;;;6251619;22;20011;-79
2023/03/20 00:11:43;;;;;;;17.95;12.85;;;;;;;;;;6303958;22;20015;-81
2023/03/20 00:14:12;;;;;;;19.45;11.68;;;;;;;;;;6304024;22;20069;-80
2023/03/20 00:16:38;;;;;;;15.30;9.70;;;;;;;;;;6277615;22;20092;-80
2023/03/20 00:19:05;;;;;;;17.42;9.73;;;;;;;;;;6276908;22;20050;-80
2023/03/20 00:21:31;;;;;;;13.38;10.23;;;;;;;;;;6277391;22;20064;-81
2023/03/20 00:23:59;;;;;;;15.82;9.10;;;;;;;;;;6305670;22;20015;-81
2023/03/20 00:26:27;;;;;;;14.02;10.30;;;;;;;;;;6305762;22;20015;-80
2023/03/20 00:28:53;;;;;;;10.93;8.02;;;;;;;;;;6279810;22;20009;-81
2023/03/20 00:31:26;;;;;;;12.88;10.02;;;;;;;;;;6278501;22;20018;-80
2023/03/20 00:33:53;;;;;;;12.55;8.50;;;;;;;;;;6303845;22;20129;-79
2023/03/20 00:36:19;;;;;;;11.68;8.40;;;;;;;;;;6275230;22;20011;-78
2023/03/20 00:38:45;;;;;;;14.70;10.52;;;;;;;;;;6301749;22;20450;-79
2023/03/20 00:41:14;;;;;;;12.27;8.80;;;;;;;;;;6275337;22;20007;-79
2023/03/20 00:43:41;;;;;;;17.02;9.10;;;;;;;;;;6302604;22;20098;-80
2023/03/20 00:46:11;;;;;;;12.07;9.43;;;;;;;;;;6302467;22;20011;-78
2023/03/20 00:48:39;;;;;;;13.75;9.55;;;;;;;;;;6303678;22;20013;-81
2023/03/20 00:51:05;;;;;;;13.70;9.48;;;;;;;;;;6276591;22;20023;-80
2023/03/20 00:53:31;;;;;;;11.63;8.35;;;;;;;;;;6303693;22;20039;-80
2023/03/20 00:55:57;;;;;;;18.77;11.65;;;;;;;;;;6302331;22;20014;-79
2023/03/20 00:58:23;;;;;;;21.35;13.27;;;;;;;;;;6302551;22;20554;-78
2023/03/20 01:00:49;;;;;;;17.05;10.88;;;;;;;;;;6249841;22;20007;-78
2023/03/20 01:03:19;;;;;;;19.48;12.70;;;;;;;;;;6275779;22;20100;-80
2023/03/20 01:05:47;;;;;;;22.08;11.77;;;;;;;;;;6276761;22;20015;-81
2023/03/20 01:08:22;;;;;;;31.02;14.20;;;;;;;;;;6275948;22;20038;-82
2023/03/20 01:10:49;;;;;;;24.85;13.68;;;;;;;;;;6308950;22;20031;-80
2023/03/20 01:13:20;;;;;;;33.78;14.88;;;;;;;;;;6251898;22;20060;-81
2023/03/20 01:15:47;;;;;;;26.03;14.47;;;;;;;;;;6254246;22;20068;-80
2023/03/20 01:18:14;;;;;;;33.33;14.90;;;;;;;;;;6312444;22;20003;-79
2023/03/20 01:20:40;;;;;;;24.70;14.68;;;;;;;;;;6279744;22;20052;-81
2023/03/20 01:23:06;;;;;;;24.88;13.82;;;;;;;;;;6307774;22;20011;-80
2023/03/20 01:25:32;;;;;;;21.77;13.18;;;;;;;;;;6306738;22;20015;-80
2023/03/20 01:27:58;;;;;;;27.80;13.43;;;;;;;;;;6307739;22;20136;-79
2023/03/20 01:30:29;;;;;;;27.25;12.95;;;;;;;;;;6303918;22;20015;-79
2023/03/20 01:32:55;;;;;;;23.15;14.52;;;;;;;;;;6275807;22;20579;-78
2023/03/20 01:35:22;;;;;;;19.95;12.85;;;;;;;;;;6275616;22;20080;-80
2023/03/20 01:37:49;;;;;;;26.55;13.10;;;;;;;;;;6276151;22;20080;-79
2023/03/20 01:40:27;;;;;;;21.65;11.40;;;;;;;;;;6250359;22;20015;-79
2023/03/20 01:42:53;;;;;;;25.38;12.73;;;;;;;;;;6275883;22;20063;-80
2023/03/20 01:45:21;;;;;;;20.58;11.85;;;;;;;;;;6275691;22;20076;-79
2023/03/20 01:47:47;;;;;;;18.42;12.18;;;;;;;;;;6251311;22;20007;-80
2023/03/20 01:50:28;;;;;;;26.38;12.23;;;;;;;;;;6251230;22;20015;-80
2023/03/20 01:53:02;;;;;;;17.27;12.40;;;;;;;;;;6277015;22;20007;-79
2023/03/20 01:55:29;;;;;;;18.65;11.75;;;;;;;;;;6276158;22;20032;-78
2023/03/20 01:57:59;;;;;;;14.82;10.82;;;;;;;;;;6280015;22;20149;-78
2023/03/20 02:00:25;;;;;;;22.27;11.80;;;;;;;;;;6292285;22;20015;-78
2023/03/20 02:02:51;;;;;;;16.45;10.88;;;;;;;;;;6267351;22;20011;-78
2023/03/20 02:05:37;;;;;;;23.88;11.90;;;;;;;;;;6252371;22;20019;-79
2023/03/20 02:08:10;;;;;;;21.90;12.73;;;;;;;;;;6267884;22;20035;-79
2023/03/20 02:10:36;;;;;;;24.35;12.27;;;;;;;;;;6289882;22;20471;-79
2023/03/20 02:13:32;;;;;;;26.13;11.95;;;;;;;;;;6298142;22;20011;-79
2023/03/20 02:16:01;;;;;;;17.17;12.20;;;;;;;;;;6293572;22;20018;-80
2023/03/20 02:18:55;;;;;;;23.52;12.02;;;;;;;;;;6247665;22;20082;-81
2023/03/20 02:21:40;;;;;;;22.17;11.68;;;;;;;;;;6290562;22;20015;-80
2023/03/20 02:24:14;;;;;;;18.98;10.90;;;;;;;;;;6249925;22;20046;-79
2023/03/20 02:26:46;;;;;;;18.60;11.98;;;;;;;;;;6250452;22;20007;-78
2023/03/20 02:29:22;;;;;;;15.52;9.68;;;;;;;;;;6276096;22;20104;-78
2023/03/20 02:31:58;;;;;;;20.20;11.10;;;;;;;;;;6278086;22;20463;-78
2023/03/20 02:34:44;;;;;;;24.65;13.88;;;;;;;;;;6277064;22;20027;-79
2023/03/20 02:37:23;;;;;;;18.27;10.07;;;;;;;;;;6278387;22;20039;-80
2023/03/20 02:39:57;;;;;;;9.52;5.90;;;;;;;;;;6279282;22;20018;-79
2023/03/20 02:42:42;;;;;;;10.75;9.25;;;;;;;;;;6278344;22;20086;-80
2023/03/20 02:45:16;;;;;;;19.25;11.20;;;;;;;;;;6253565;22;20019;-79
2023/03/20 02:47:47;;;;;;;8.38;7.50;;;;;;;;;;6277326;22;20046;-81
2023/03/20 02:50:19;;;;;;;23.50;13.05;;;;;;;;;;6279126;22;20015;-80
2023/03/20 02:52:52;;;;;;;16.75;12.00;;;;;;;;;;6279812;22;20011;-80
2023/03/20 02:55:38;;;;;;;17.30;11.95;;;;;;;;;;6228974;22;20477;-79
2023/03/20 02:58:20;;;;;;;16.75;11.93;;;;;;;;;;6280821;22;20015;-80
2023/03/20 03:00:49;;;;;;;11.82;9.68;;;;;;;;;;6252390;22;20011;-79
2023/03/20 03:03:23;;;;;;;24.70;12.82;;;;;;;;;;6261592;22;20018;-78
2023/03/20 03:05:52;;;;;;;10.73;8.43;;;;;;;;;;6265649;22;20525;-77
2023/03/20 03:08:18;;;;;;;8.90;7.47;;;;;;;;;;6290370;22;20022;-78
2023/03/20 03:10:47;;;;;;;12.32;7.45;;;;;;;;;;6237902;22;20019;-77
2023/03/20 03:13:14;;;;;;;7.60;6.72;;;;;;;;;;6270121;22;20021;-76
2023/03/20 03:15:41;;;;;;;13.63;8.88;;;;;;;;;;6265725;22;20007;-77
2023/03/20 03:18:10;;;;;;;15.60;9.65;;;;;;;;;;6261862;22;20026;-75
2023/03/20 03:20:37;;;;;;;17.98;10.35;;;;;;;;;;6254518;22;20020;-76
2023/03/20 03:23:04;;;;;;;22.00;12.10;;;;;;;;;;6276869;22;20011;-75
2023/03/20 03:25:31;;;;;;;15.93;10.52;;;;;;;;;;6278639;22;20015;-75
2023/03/20 03:28:06;;;;;;;18.33;12.77;;;;;;;;;;6201340;22;20007;-76
2023/03/20 03:30:33;;;;;;;22.15;11.55;;;;;;;;;;6304646;22;20011;-75
2023/03/20 03:33:12;;;;;;;20.15;12.02;;;;;;;;;;6275674;22;20007;-76
2023/03/20 03:35:38;;;;;;;12.32;6.72;;;;;;;;;;6251763;22;20011;-78
2023/03/20 03:38:37;;;;;;;17.58;11.02;;;;;;;;;;6276893;22;20014;-79
2023/03/20 03:41:09;;;;;;;14.52;9.93;;;;;;;;;;6194751;22;20011;-79
2023/03/20 03:43:38;;;;;;;15.27;10.23;;;;;;;;;;6251765;22;20022;-79
2023/03/20 03:46:06;;;;;;;21.38;10.23;;;;;;;;;;6304032;22;20019;-78
2023/03/20 03:48:34;;;;;;;15.52;11.15;;;;;;;;;;6277647;22;20444;-79
2023/03/20 03:51:08;;;;;;;17.17;11.13;;;;;;;;;;6251739;22;20018;-79
2023/03/20 03:53:40;;;;;;;21.60;11.57;;;;;;;;;;6252557;22;20015;-79
2023/03/20 03:56:07;;;;;;;17.10;11.07;;;;;;;;;;6251224;22;20034;-78
2023/03/20 03:58:36;;;;;;;10.88;8.30;;;;;;;;;;6276935;22;20519;-78
2023/03/20 04:01:02;;;;;;;14.25;8.30;;;;;;;;;;6276227;22;20013;-78
2023/03/20 04:03:29;;;;;;;12.48;8.57;;;;;;;;;;6276006;22;20019;-78
2023/03/20 04:05:55;;;;;;;11.70;7.78;;;;;;;;;;6225923;22;20015;-79
2023/03/20 04:08:22;;;;;;;4.60;4.30;;;;;;;;;;6251693;22;20007;-79
2023/03/20 04:10:48;;;;;;;7.30;5.60;;;;;;;;;;6276027;22;20119;-77
2023/03/20 04:13:15;;;;;;;9.20;5.88;;;;;;;;;;6300022;22;20490;-78
2023/03/20 04:15:41;;;;;;;5.80;5.30;;;;;;;;;;6252003;22;20018;-77
2023/03/20 04:18:15;;;;;;;12.65;9.77;;;;;;;;;;6251650;22;20066;-77
2023/03/20 04:20:43;;;;;;;5.63;5.13;;;;;;;;;;6276901;22;20015;-75
2023/03/20 04:23:10;;;;;;;9.13;7.35;;;;;;;;;;6250869;22;20011;-77
2023/03/20 04:25:36;;;;;;;11.40;8.77;;;;;;;;;;6282290;22;20044;-79
2023/03/20 04:28:02;;;;;;;14.45;10.65;;;;;;;;;;6318427;22;20049;-79
2023/03/20 04:30:55;;;;;;;14.57;10.00;;;;;;;;;;6286626;22;20011;-78
2023/03/20 04:33:41;;;;;;;10.75;9.60;;;;;;;;;;6260464;22;20018;-78
2023/03/20 04:36:26;;;;;;;12.40;9.68;;;;;;;;;;6309576;22;20014;-80
2023/03/20 04:38:54;;;;;;;23.83;11.18;;;;;;;;;;6277029;22;20132;-80
2023/03/20 04:41:20;;;;;;;20.80;12.10;;;;;;;;;;6275492;22;20007;-79
2023/03/20 04:43:49;;;;;;;22.48;12.00;;;;;;;;;;6252386;22;20019;-79
2023/03/20 04:46:15;;;;;;;10.48;8.85;;;;;;;;;;6275494;22;20026;-79
2023/03/20 04:48:41;;;;;;;20.88;10.40;;;;;;;;;;6306024;22;20007;-80
2023/03/20 04:51:08;;;;;;;11.35;8.73;;;;;;;;;;6279473;22;20542;-81
2023/03/20 04:53:43;;;;;;;19.80;11.18;;;;;;;;;;6252426;22;20344;-80
2023/03/20 04:56:09;;;;;;;17.05;10.05;;;;;;;;;;6276658;22;20007;-78
2023/03/20 04:58:36;;;;;;;31.38;11.60;;;;;;;;;;6303721;22;20015;-80
2023/03/20 05:01:02;;;;;;;17.10;11.07;;;;;;;;;;6276294;22;20014;-79
2023/03/20 05:03:29;;;;;;;17.33;12.00;;;;;;;;;;6300491;22;20071;-78
2023/03/20 05:05:55;;;;;;;15.55;11.60;;;;;;;;;;6245759;22;20019;-79
2023/03/20 05:08:21;;;;;;;17.90;10.52;;;;;;;;;;6277645;22;20052;-82
2023/03/20 05:10:51;;;;;;;8.73;7.07;;;;;;;;;;6256759;22;20513;-84
2023/03/20 05:13:36;;;;;;;9.38;8.50;;;;;;;;;;6303364;22;20011;-83
2023/03/20 05:16:21;;;;;;;13.95;10.43;;;;;;;;;;6300995;22;20011;-79
2023/03/20 05:19:16;;;;;;;10.88;8.32;;;;;;;;;;6245176;22;20023;-79
2023/03/20 05:22:05;;;;;;;12.95;10.18;;;;;;;;;;6301064;22;20046;-78
2023/03/20 05:24:51;;;;;;;13.20;9.93;;;;;;;;;;6218169;22;20068;-78
2023/03/20 05:27:44;;;;;;;11.48;8.85;;;;;;;;;;6279788;22;20543;-80
2023/03/20 05:30:28;;;;;;;11.50;8.52;;;;;;;;;;6303925;22;20046;-80
2023/03/20 05:33:15;;;;;;;8.32;7.50;;;;;;;;;;6275023;22;20026;-79
2023/03/20 05:35:58;;;;;;;16.70;10.48;;;;;;;;;;6274990;22;20015;-79
2023/03/20 05:38:34;;;;;;;16.10;11.10;;;;;;;;;;6276740;22;20061;-78
2023/03/20 05:41:39;;;;;;;17.60;11.70;;;;;;;;;;6151667;23;20481;-77
2023/03/20 05:44:31;;;;;;;15.18;11.52;;;;;;;;;;6173637;23;20021;-78
2023/03/20 05:47:12;;;;;;;12.27;10.68;;;;;;;;;;6252503;22;20014;-79
2023/03/20 05:49:56;;;;;;;15.10;11.13;;;;;;;;;;6278952;22;20022;-79
2023/03/20 05:52:31;;;;;;;10.75;7.40;;;;;;;;;;6251963;22;20348;-80
2023/03/20 05:55:17;;;;;;;10.27;7.00;;;;;;;;;;6280658;22;20015;-79
2023/03/20 05:58:06;;;;;;;16.75;12.07;;;;;;;;;;6279497;22;20013;-79
2023/03/20 06:00:56;;;;;;;13.85;11.00;;;;;;;;;;6294865;22;20094;-79
2023/03/20 06:03:41;;;;;;;18.92;12.18;;;;;;;;;;6303239;22;20016;-80
2023/03/20 06:06:13;;;;;;;16.27;10.82;;;;;;;;;;6252363;22;20037;-79
2023/03/20 06:08:40;;;;;;;19.05;13.40;;;;;;;;;;6252062;22;20007;-79
2023/03/20 06:11:06;;;;;;;20.08;14.52;;;;;;;;;;6276651;22;20026;-79
2023/03/20 06:13:35;;;;;;;19.48;14.90;;;;;;;;;;6276855;22;20047;-77
2023/03/20 06:16:02;;;;;;;16.80;12.10;;;;;;;;;;6305121;22;20031;-80
2023/03/20 06:18:28;;;;;;;18.00;14.07;;;;;;;;;;6251187;22;20015;-81
2023/03/20 06:20:55;;;;;;;20.77;12.93;;;;;;;;;;6276886;22;20015;-78
2023/03/20 06:23:22;;;;;;;16.70;12.45;;;;;;;;;;6254732;22;20065;-80
2023/03/20 06:25:48;;;;;;;19.08;12.55;;;;;;;;;;6286344;22;20039;-82
2023/03/20 06:28:17;;;;;;;19.67;12.48;;;;;;;;;;6282885;22;20451;-79
2023/03/20 06:30:44;;;;;;;15.10;11.27;;;;;;;;;;6286712;22;20018;-81
2023/03/20 06:33:15;;;;;;;19.50;11.80;;;;;;;;;;6252879;22;20012;-81
2023/03/20 06:35:54;;;;;;;19.67;10.77;;;;;;;;;;6254235;22;20158;-78
2023/03/20 06:38:20;;;;;;;19.70;10.82;;;;;;;;;;6276118;22;20018;-77
2023/03/20 06:40:47;;;;;;;23.15;13.13;;;;;;;;;;6251423;22;20355;-79
2023/03/20 06:43:16;;;;;;;16.65;10.77;;;;;;;;;;6276440;22;20093;-79
2023/03/20 06:45:48;;;;;;;22.33;12.27;;;;;;;;;;6252084;22;20018;-79
2023/03/20 06:48:24;;;;;;;17.30;13.68;;;;;;;;;;6276028;22;20007;-78
2023/03/20 06:50:51;;;;;;;11.43;9.02;;;;;;;;;;6276748;22;20011;-78
2023/03/20 06:53:20;;;;;;;19.77;12.32;;;;;;;;;;6275936;22;20014;-78
2023/03/20 06:55:53;;;;;;;18.85;12.68;;;;;;;;;;6250635;22;20015;-78
2023/03/20 06:58:20;;;;;;;16.67;12.63;;;;;;;;;;6249783;22;20011;-78
2023/03/20 07:00:49;;;;;;;25.33;15.43;;;;;;;;;;6276066;22;20011;-77
2023/03/20 07:03:15;;;;;;;19.90;12.75;;;;;;;;;;6275884;22;20069;-79
2023/03/20 07:05:44;;;;;;;23.00;12.02;;;;;;;;;;6277033;22;20015;-79
2023/03/20 07:08:11;;;;;;;11.85;10.35;;;;;;;;;;6276040;22;20007;-78
2023/03/20 07:10:37;;;;;;;14.20;12.50;;;;;;;;;;6249858;22;20019;-78
2023/03/20 07:13:04;;;;;;;15.65;9.55;;;;;;;;;;6275464;22;20011;-78
2023/03/20 07:15:32;;;;;;;14.70;10.68;;;;;;;;;;6250432;22;20042;-78
2023/03/20 07:17:57;;;;;;;11.27;8.02;;;;;;;;;;6275829;22;20072;-78
2023/03/20 07:20:26;;;;;;;14.57;11.43;;;;;;;;;;6276204;22;20015;-79
2023/03/20 07:22:52;;;;;;;12.55;11.02;;;;;;;;;;6303171;22;20014;-79
2023/03/20 07:25:22;;;;;;;13.02;10.13;;;;;;;;;;6250046;22;20019;-78
2023/03/20 07:27:49;;;;;;;20.88;12.27;;;;;;;;;;6250245;22;20043;-78
2023/03/20 07:30:19;;;;;;;14.20;10.70;;;;;;;;;;6275879;22;20018;-76
2023/03/20 07:32:47;;;;;;;15.18;11.00;;;;;;;;;;6275793;22;20121;-78
2023/03/20 07:35:13;;;;;;;16.05;9.73;;;;;;;;;;6280863;22;20367;-78
2023/03/20 07:37:41;;;;;;;12.65;10.00;;;;;;;;;;6276035;22;20470;-78
2023/03/20 07:40:07;;;;;;;15.05;10.43;;;;;;;;;;6276207;22;20090;-76
2023/03/20 07:42:43;;;;;;;13.75;10.00;;;;;;;;;;6275668;22;20111;-79
2023/03/20 07:45:21;;;;;;;11.65;7.82;;;;;;;;;;6274049;22;20471;-78
2023/03/20 07:47:47;;;;;;;8.98;8.07;;;;;;;;;;6275293;22;20050;-77
2023/03/20 07:50:13;;;;;;;13.02;9.23;;;;;;;;;;6275214;22;20149;-79
2023/03/20 07:52:45;;;;;;;15.40;9.45;;;;;;;;;;6275145;22;20094;-77
2023/03/20 07:55:12;;;;;;;14.32;9.65;;;;;;;;;;6249994;22;20035;-78
2023/03/20 07:57:38;;;;;;;12.52;8.98;;;;;;;;;;6274845;22;20018;-78
2023/03/20 08:00:04;;;;;;;9.68;8.18;;;;;;;;;;6274896;22;20530;-78
2023/03/20 08:02:37;;;;;;;19.80;9.40;;;;;;;;;;6302252;22;20039;-79
2023/03/20 08:05:03;;;;;;;6.03;5.03;;;;;;;;;;6303196;22;20399;-78
2023/03/20 08:07:29;;;;;;;8.32;7.13;;;;;;;;;;6275744;22;20158;-80
2023/03/20 08:09:56;;;;;;;8.45;7.00;;;;;;;;;;6275634;22;20011;-79
2023/03/20 08:12:22;;;;;;;8.88;7.97;;;;;;;;;;6275410;22;20056;-77
2023/03/20 08:14:48;;;;;;;10.38;8.10;;;;;;;;;;6302656;22;20089;-78
2023/03/20 08:17:14;;;;;;;10.23;7.38;;;;;;;;;;6302468;22;20011;-78
2023/03/20 08:19:40;;;;;;;11.05;7.55;;;;;;;;;;6302909;22;20332;-79
2023/03/20 08:22:06;;;;;;;10.88;7.40;;;;;;;;;;6303184;22;20007;-78
2023/03/20 08:24:31;;;;;;;13.85;7.88;;;;;;;;;;6301969;22;20061;-78
2023/03/20 08:26:57;;;;;;;12.15;7.63;;;;;;;;;;6275152;22;20007;-80
2023/03/20 08:29:24;;;;;;;8.95;7.18;;;;;;;;;;6302712;22;20079;-78
2023/03/20 08:31:50;;;;;;;11.50;7.55;;;;;;;;;;6278341;22;20094;-78
2023/03/20 08:34:15;;;;;;;10.65;7.00;;;;;;;;;;6304114;22;20014;-78
2023/03/20 08:36:42;;;;;;;7.40;6.70;;;;;;;;;;6302313;22;20401;-78
2023/03/20 08:39:07;;;;;;;8.82;5.72;;;;;;;;;;6274997;22;20049;-80
2023/03/20 08:41:35;;;;;;;7.63;6.07;;;;;;;;;;6274912;22;20018;-77
2023/03/20 08:44:01;;;;;;;6.28;5.55;;;;;;;;;;6275148;22;20143;-79
2023/03/20 08:46:27;;;;;;;5.80;5.10;;;;;;;;;;6275040;22;20035;-79
2023/03/20 08:48:53;;;;;;;5.18;4.80;;;;;;;;;;6301949;22;20018;-78
2023/03/20 08:51:20;;;;;;;5.80;4.80;;;;;;;;;;6275344;22;20011;-78
2023/03/20 08:53:45;;;;;;;5.47;5.07;;;;;;;;;;6301905;22;20018;-77
2023/03/20 08:56:12;;;;;;;8.85;4.85;;;;;;;;;;6275810;22;20007;-80
2023/03/20 08:58:37;;;;;;;8.20;5.32;;;;;;;;;;6304410;22;20017;-80
2023/03/20 09:01:04;;;;;;;11.38;5.50;;;;;;;;;;6275367;22;20062;-79
2023/03/20 09:03:30;;;;;;;7.00;6.30;;;;;;;;;;6302790;22;20098;-78
2023/03/20 09:05:56;;;;;;;5.28;4.78;;;;;;;;;;6250228;22;20367;-79
2023/03/20 09:08:23;;;;;;;5.03;4.63;;;;;;;;;;6301965;22;20094;-79
2023/03/20 09:10:49;;;;;;;5.05;4.63;;;;;;;;;;6274135;22;20363;-79
2023/03/20 09:13:15;;;;;;;6.22;4.70;;;;;;;;;;6301915;22;20405;-79
2023/03/20 09:15:41;;;;;;;7.05;4.55;;;;;;;;;;6298887;22;20021;-80
2023/03/20 09:18:07;;;;;;;9.75;4.90;;;;;;;;;;6302304;22;20018;-79
2023/03/20 09:20:33;;;;;;;6.72;4.22;;;;;;;;;;6274562;22;20369;-80
2023/03/20 09:23:00;;;;;;;6.30;4.60;;;;;;;;;;6302244;22;20011;-78
2023/03/20 09:25:25;;;;;;;5.43;4.00;;;;;;;;;;6302128;22;20027;-79
2023/03/20 09:27:54;;;;;;;5.13;4.63;;;;;;;;;;6279948;22;20422;-80
2023/03/20 09:30:21;;;;;;;7.85;4.75;;;;;;;;;;6288950;22;20340;-77
2023/03/20 09:32:47;;;;;;;9.93;6.38;;;;;;;;;;6318661;22;20014;-79
2023/03/20 09:35:13;;;;;;;5.93;5.32;;;;;;;;;;6317177;22;20049;-79
2023/03/20 09:37:39;;;;;;;7.75;5.57;;;;;;;;;;6276757;22;20094;-82
2023/03/20 09:40:05;;;;;;;10.15;6.35;;;;;;;;;;6305682;22;20661;-80
2023/03/20 09:42:57;;;;;;;6.28;5.75;;;;;;;;;;6309542;22;20023;-78
2023/03/20 09:45:39;;;;;;;5.15;4.75;;;;;;;;;;6221374;22;20100;-78
2023/03/20 09:48:18;;;;;;;11.07;5.97;;;;;;;;;;6304726;22;20012;-79
2023/03/20 09:50:53;;;;;;;6.25;5.70;;;;;;;;;;6251858;22;20037;-80
2023/03/20 09:53:24;;;;;;;6.25;5.60;;;;;;;;;;6276884;22;20014;-79
2023/03/20 09:55:50;;;;;;;9.25;5.50;;;;;;;;;;6251037;22;20508;-77
2023/03/20 09:58:19;;;;;;;6.13;5.25;;;;;;;;;;6276952;22;20007;-78
2023/03/20 10:00:45;;;;;;;6.55;5.40;;;;;;;;;;6276269;22;20068;-80
2023/03/20 10:03:21;;;;;;;5.53;5.03;;;;;;;;;;6305278;22;20010;-80
2023/03/20 10:05:53;;;;;;;6.00;4.65;;;;;;;;;;6278673;22;20015;-78
2023/03/20 10:08:20;;;;;;;5.25;4.72;;;;;;;;;;6277919;22;20474;-79
2023/03/20 10:10:50;;;;;;;5.50;4.75;;;;;;;;;;6277619;22;20681;-80
2023/03/20 10:13:20;;;;;;;5.60;4.82;;;;;;;;;;6305552;22;20447;-78
2023/03/20 10:15:48;;;;;;;8.95;6.70;;;;;;;;;;6304617;22;20011;-80
2023/03/20 10:18:22;;;;;;;31.45;18.23;;;;;;;;;;6276675;22;20011;-77
2023/03/20 10:20:54;;;;;;;4.95;4.50;;;;;;;;;;6277133;22;20022;-79
2023/03/20 10:23:24;;;;;;;7.90;4.40;;;;;;;;;;6303812;22;20011;-82
2023/03/20 10:25:51;;;;;;;6.68;4.60;;;;;;;;;;6303958;22;20013;-80
2023/03/20 10:28:19;;;;;;;7.57;4.95;;;;;;;;;;6277922;22;20462;-80
2023/03/20 10:30:45;;;;;;;6.68;5.28;;;;;;;;;;6252646;22;20022;-78
2023/03/20 10:33:46;;;;;;;7.43;5.32;;;;;;;;;;6303756;22;20090;-78
2023/03/20 10:36:18;;;;;;;8.40;5.15;;;;;;;;;;6148630;23;20565;-80
2023/03/20 10:38:50;;;;;;;5.30;4.80;;;;;;;;;;6279189;22;20057;-80
2023/03/20 10:41:17;;;;;;;6.10;5.13;;;;;;;;;;6306161;22;20011;-81
2023/03/20 10:43:43;;;;;;;5.13;4.63;;;;;;;;;;6306938;22;20523;-80
2023/03/20 10:46:20;;;;;;;11.90;6.28;;;;;;;;;;6279580;22;20407;-82
2023/03/20 10:48:51;;;;;;;5.53;5.03;;;;;;;;;;6279756;22;20014;-82
2023/03/20 10:51:17;;;;;;;5.28;4.75;;;;;;;;;;6279614;22;20011;-80
2023/03/20 10:53:48;;;;;;;7.53;4.43;;;;;;;;;;6306307;22;20017;-79
2023/03/20 10:56:15;;;;;;;5.75;4.80;;;;;;;;;;6306589;22;20007;-79
2023/03/20 10:58:42;;;;;;;5.82;5.30;;;;;;;;;;6278455;22;20021;-81
2023/03/20 11:01:08;;;;;;;8.00;4.85;;;;;;;;;;6279158;22;20014;-81
2023/03/20 11:03:38;;;;;;;8.93;5.38;;;;;;;;;;6305873;22;20030;-81
2023/03/20 11:06:17;;;;;;;6.82;5.30;;;;;;;;;;6278270;22;20015;-81
2023/03/20 11:08:49;;;;;;;6.32;5.22;;;;;;;;;;6278618;22;20035;-81
2023/03/20 11:11:20;;;;;;;5.20;4.80;;;;;;;;;;6277418;22;20023;-80
2023/03/20 11:13:48;;;;;;;7.22;5.28;;;;;;;;;;6276847;22;20007;-81
2023/03/20 11:16:35;;;;;;;7.18;5.32;;;;;;;;;;6276893;22;20011;-78
2023/03/20 11:19:07;;;;;;;5.25;4.75;;;;;;;;;;6304819;22;20513;-81
2023/03/20 11:21:33;;;;;;;5.75;5.25;;;;;;;;;;6304314;22;20022;-80
2023/03/20 11:23:59;;;;;;;5.35;4.85;;;;;;;;;;6276715;22;20019;-78
2023/03/20 11:26:35;;;;;;;11.52;5.70;;;;;;;;;;6276260;22;20098;-77
2023/03/20 11:29:01;;;;;;;6.63;5.00;;;;;;;;;;6275840;22;20249;-78
2023/03/20 11:31:35;;;;;;;5.95;5.35;;;;;;;;;;6225042;22;20091;-78
2023/03/20 11:34:14;;;;;;;6.63;5.95;;;;;;;;;;6303216;22;20011;-78
2023/03/20 11:36:58;;;;;;;5.82;4.70;;;;;;;;;;6303100;22;20014;-79
2023/03/20 11:39:30;;;;;;;6.10;4.63;;;;;;;;;;6303448;22;20011;-77
2023/03/20 11:41:57;;;;;;;7.03;6.20;;;;;;;;;;6276135;22;20015;-77
2023/03/20 11:44:27;;;;;;;7.30;5.72;;;;;;;;;;6304151;22;20026;-78
2023/03/20 11:47:06;;;;;;;5.73;5.27;;;;;;;;;;6303115;22;20057;-77
2023/03/20 11:49:44;;;;;;;9.38;6.45;;;;;;;;;;6249974;22;20015;-77
2023/03/20 11:52:11;;;;;;;7.53;6.40;;;;;;;;;;6305661;22;20007;-80
2023/03/20 11:54:37;;;;;;;8.02;5.47;;;;;;;;;;6303249;22;20018;-78
2023/03/20 11:57:03;;;;;;;10.00;5.68;;;;;;;;;;6275383;22;20098;-78
2023/03/20 11:59:33;;;;;;;6.20;5.60;;;;;;;;;;6302762;22;20045;-78
2023/03/20 12:02:00;;;;;;;16.58;8.43;;;;;;;;;;6275748;22;20012;-77
2023/03/20 12:04:33;;;;;;;6.97;6.00;;;;;;;;;;6303280;22;20131;-78
2023/03/20 12:07:01;;;;;;;10.00;5.75;;;;;;;;;;6277318;22;20011;-81
2023/03/20 12:09:36;;;;;;;7.20;6.13;;;;;;;;;;6278597;22;20034;-81
2023/03/20 12:12:04;;;;;;;7.82;5.55;;;;;;;;;;6278737;22;20022;-80
2023/03/20 12:14:37;;;;;;;8.43;5.53;;;;;;;;;;6301953;22;20057;-78
2023/03/20 12:17:21;;;;;;;7.95;5.88;;;;;;;;;;6303821;22;20390;-80
2023/03/20 12:19:47;;;;;;;6.00;5.45;;;;;;;;;;6302901;22;20011;-80
2023/03/20 12:22:21;;;;;;;6.00;5.20;;;;;;;;;;6275213;22;20008;-78
2023/03/20 12:24:55;;;;;;;6.43;5.70;;;;;;;;;;6275503;22;20023;-79
2023/03/20 12:27:30;;;;;;;5.88;5.28;;;;;;;;;;6274755;22;20031;-80
2023/03/20 12:30:09;;;;;;;9.48;5.75;;;;;;;;;;6250040;22;20420;-79
2023/03/20 12:32:41;;;;;;;6.47;5.47;;;;;;;;;;6249938;22;20113;-78
2023/03/20 12:35:10;;;;;;;6.63;5.90;;;;;;;;;;6302278;22;20073;-79
2023/03/20 12:37:37;;;;;;;6.22;5.63;;;;;;;;;;6275105;22;20011;-78
2023/03/20 12:40:03;;;;;;;13.75;5.75;;;;;;;;;;6276100;22;20011;-79
2023/03/20 12:42:55;;;;;;;6.38;5.80;;;;;;;;;;6250281;22;20166;-80
2023/03/20 12:45:22;;;;;;;12.18;8.60;;;;;;;;;;6269862;22;20571;-79
2023/03/20 12:47:48;;;;;;;6.55;5.95;;;;;;;;;;6273358;22;20007;-77
2023/03/20 12:50:23;;;;;;;7.00;6.30;;;;;;;;;;6273839;22;20017;-78
2023/03/20 12:52:49;;;;;;;6.40;5.80;;;;;;;;;;6301892;22;20008;-79
2023/03/20 12:55:21;;;;;;;8.63;6.15;;;;;;;;;;6303084;22;20019;-78
2023/03/20 12:58:00;;;;;;;8.15;5.65;;;;;;;;;;6302061;22;20007;-79
2023/03/20 13:00:33;;;;;;;10.02;5.85;;;;;;;;;;6302836;22;20007;-79
2023/03/20 13:03:03;;;;;;;7.15;5.07;;;;;;;;;;6276059;22;20086;-79
2023/03/20 13:05:33;;;;;;;8.98;6.18;;;;;;;;;;6276285;22;20023;-77
2023/03/20 13:07:59;;;;;;;8.80;5.55;;;;;;;;;;6301813;22;20101;-79
2023/03/20 13:10:30;;;;;;;10.60;5.60;;;;;;;;;;6301951;22;20034;-79
2023/03/20 13:12:56;;;;;;;;;;;;;;;;;;6303329;22;20013;-78
2023/03/20 13:15:26;;;;;;;7.75;6.18;;;;;;;;;;6274894;22;19946;-78
2023/03/20 13:18:10;;;;;;;8.05;5.75;;;;;;;;;;6275048;22;20090;-78
2023/03/20 13:20:37;;;;;;;5.40;4.78;;;;;;;;;;6301682;22;20094;-76
2023/03/20 13:23:21;;;;;;;6.65;5.18;;;;;;;;;;6302160;22;20039;-78
2023/03/20 13:25:47;;;;;;;7.38;6.22;;;;;;;;;;6302298;22;20035;-78
2023/03/20 13:28:16;;;;;;;7.10;5.50;;;;;;;;;;6302670;22;20021;-74
2023/03/20 13:31:01;;;;;;;9.77;5.88;;;;;;;;;;6302811;22;20402;-76
2023/03/20 13:33:34;;;;;;;7.45;5.57;;;;;;;;;;6301566;22;20095;-80
2023/03/20 13:36:07;;;;;;;6.47;5.88;;;;;;;;;;6278036;22;20075;-79
2023/03/20 13:38:34;;;;;;;7.80;6.30;;;;;;;;;;6307393;22;20011;-82
2023/03/20 13:41:01;;;;;;;6.47;5.90;;;;;;;;;;6313811;22;20011;-82
2023/03/20 13:43:53;;;;;;;7.57;6.13;;;;;;;;;;6292143;22;20030;-80
2023/03/20 13:46:21;;;;;;;9.23;6.40;;;;;;;;;;6304614;22;20007;-79
2023/03/20 13:48:47;;;;;;;6.63;5.25;;;;;;;;;;6318139;22;20454;-78
2023/03/20 13:51:30;;;;;;;8.02;6.45;;;;;;;;;;6308175;22;20018;-81
2023/03/20 13:54:05;;;;;;;5.38;4.90;;;;;;;;;;6276835;22;20011;-79
2023/03/20 13:56:37;;;;;;;6.20;5.10;;;;;;;;;;6301666;22;20015;-79
2023/03/20 13:59:03;;;;;;;8.52;5.40;;;;;;;;;;6301026;22;20011;-78
2023/03/20 14:01:33;;;;;;;6.03;4.65;;;;;;;;;;6308512;22;20015;-78
2023/03/20 14:04:00;;;;;;;5.10;4.60;;;;;;;;;;6248355;22;20114;-76
2023/03/20 14:06:26;;;;;;;7.43;4.45;;;;;;;;;;6272375;22;20490;-79
2023/03/20 14:08:52;;;;;;;9.55;5.35;;;;;;;;;;6301557;22;20080;-78
2023/03/20 14:11:19;;;;;;;5.80;5.18;;;;;;;;;;6274196;22;20023;-78
2023/03/20 14:13:46;;;;;;;6.30;4.57;;;;;;;;;;6301981;22;20072;-77
2023/03/20 14:16:13;;;;;;;5.65;4.68;;;;;;;;;;6301957;22;20530;-80
2023/03/20 14:18:39;;;;;;;7.30;5.05;;;;;;;;;;6275010;22;20022;-80
2023/03/20 14:21:13;;;;;;;4.85;4.13;;;;;;;;;;6277701;22;20018;-80
2023/03/20 14:23:49;;;;;;;5.68;4.00;;;;;;;;;;6248604;22;20080;-78
2023/03/20 14:26:21;;;;;;;7.53;5.40;;;;;;;;;;6302671;22;20019;-78
2023/03/20 14:28:54;;;;;;;17.80;8.52;;;;;;;;;;6308689;22;20478;-81
2023/03/20 14:31:21;;;;;;;12.50;8.75;;;;;;;;;;6289791;22;20018;-83
2023/03/20 14:33:52;;;;;;;11.88;7.47;;;;;;;;;;6306762;22;20011;-77
2023/03/20 14:36:21;;;;;;;9.98;7.55;;;;;;;;;;6227630;22;20076;-80
2023/03/20 14:38:57;;;;;;;8.27;6.95;;;;;;;;;;6251586;22;20015;-79
2023/03/20 14:41:26;;;;;;;10.38;7.20;;;;;;;;;;6304144;22;20011;-79
2023/03/20 14:43:57;;;;;;;7.90;6.93;;;;;;;;;;6304510;22;20019;-81
2023/03/20 14:46:46;;;;;;;10.73;6.47;;;;;;;;;;6275760;22;20015;-79
2023/03/20 14:49:32;;;;;;;8.10;6.50;;;;;;;;;;6255500;22;20011;-79
2023/03/20 14:52:21;;;;;;;9.20;6.10;;;;;;;;;;6234299;22;20041;-78
2023/03/20 14:54:51;;;;;;;5.97;5.22;;;;;;;;;;6293749;22;20007;-80